Nags Head, North Carolina
Current Conditions -  °F | °C
As of 12:55 AM on Friday 28 Nov 2014 (Local Time) from KFFA Reporting Station
Overcast Overcast  
Wind Chill: 35°   Ceiling: 6500
Heat Index: 41°   Visibility: 10mi
Dew Point: 33°   Wind: 9mph
Humidity: 73%   Direction: 340°NNW
Pressure: 30.14"   Gusts: 17mph
Location:  35.96°N, 75.62°W
Report Text: KFFA 280555Z AUTO 34008G15KT 310V030 10SM OVC065 05/01 A3014 RMK AO2 T00510006 10348 21080
Loading
Personal Weather Stations






























Interactive Weather Map New forecast layout! Learn more

10-Day Weather Forecast

Advertisements
Track Severe Weather on mobile